TAX99PA LFBO-LPPR
Flight info
| Callsign | TAX99PA |
|---|---|
| Flight time | N/A |
| Altitude | 27000 |
| Route | GAUDE DCT LATEK/N0416F290 N995 PPN/N0431F330 N976 ZMR L155 ADORO/N0426F320 DCT ELGIX |
| Aircraft | A320/M-SDE3FGHIRWY/LB1 |
Departure
| Time | 2026-04-27 17:55 |
|---|---|
| Airport | Toulouse-Blagnac Airport (LFBO) |
Arrival
| Time | N/A |
|---|---|
| Airport | Francisco de Sá Carneiro Airport (LPPR) |
| Time | Latitude | Longitude | Altitude | Speed | Heading |
|---|---|---|---|---|---|
| 2026-04-27 17:38 | 43.62871 | 1.37413 | 494 ft | 0 kts | 49° |
| 2026-04-27 17:46 | 43.62863 | 1.37402 | 494 ft | 4 kts | 47° |
| 2026-04-27 17:46 | 43.62846 | 1.37374 | 489 ft | 4 kts | 57° |
| 2026-04-27 17:46 | 43.62835 | 1.37342 | 486 ft | 4 kts | 88° |
| 2026-04-27 17:47 | 43.62840 | 1.37315 | 489 ft | 1 kts | 142° |
| 2026-04-27 17:47 | 43.62841 | 1.37314 | 489 ft | 0 kts | 143° |
| 2026-04-27 17:49 | 43.62820 | 1.37336 | 483 ft | 5 kts | 142° |
| 2026-04-27 17:49 | 43.62794 | 1.37364 | 489 ft | 4 kts | 142° |
| 2026-04-27 17:50 | 43.62774 | 1.37385 | 491 ft | 3 kts | 142° |
| 2026-04-27 17:50 | 43.62738 | 1.37422 | 489 ft | 7 kts | 143° |
| 2026-04-27 17:50 | 43.62686 | 1.37474 | 489 ft | 12 kts | 153° |
| 2026-04-27 17:51 | 43.62618 | 1.37425 | 488 ft | 13 kts | 217° |
| 2026-04-27 17:51 | 43.62533 | 1.37341 | 486 ft | 16 kts | 181° |
| 2026-04-27 17:51 | 43.62449 | 1.37414 | 488 ft | 14 kts | 142° |
| 2026-04-27 17:51 | 43.62378 | 1.37489 | 490 ft | 12 kts | 143° |
| 2026-04-27 17:52 | 43.62315 | 1.37554 | 485 ft | 11 kts | 143° |
| 2026-04-27 17:52 | 43.62259 | 1.37613 | 485 ft | 9 kts | 142° |
| 2026-04-27 17:52 | 43.62209 | 1.37663 | 492 ft | 8 kts | 148° |
| 2026-04-27 17:52 | 43.62174 | 1.37673 | 492 ft | 7 kts | 189° |
| 2026-04-27 17:53 | 43.62131 | 1.37618 | 488 ft | 6 kts | 232° |
| 2026-04-27 17:53 | 43.62110 | 1.37581 | 489 ft | 4 kts | 232° |
| 2026-04-27 17:53 | 43.62094 | 1.37551 | 492 ft | 3 kts | 232° |
| 2026-04-27 17:53 | 43.62081 | 1.37528 | 490 ft | 3 kts | 232° |
| 2026-04-27 17:54 | 43.62077 | 1.37496 | 487 ft | 4 kts | 289° |
| 2026-04-27 17:54 | 43.62112 | 1.37448 | 491 ft | 19 kts | 318° |
| 2026-04-27 17:54 | 43.62425 | 1.37127 | 488 ft | 91 kts | 322° |
| 2026-04-27 17:54 | 43.63090 | 1.36434 | 493 ft | 146 kts | 323° |
| 2026-04-27 17:55 | 43.63947 | 1.35540 | 1000 ft | 154 kts | 322° |
| 2026-04-27 17:55 | 43.64802 | 1.34619 | 1609 ft | 161 kts | 321° |
| 2026-04-27 17:55 | 43.65734 | 1.33596 | 1938 ft | 181 kts | 321° |
| 2026-04-27 17:55 | 43.66765 | 1.32455 | 2292 ft | 200 kts | 320° |
| 2026-04-27 17:56 | 43.67916 | 1.31170 | 2646 ft | 224 kts | 319° |
| 2026-04-27 17:56 | 43.68964 | 1.29463 | 3100 ft | 246 kts | 301° |
| 2026-04-27 17:56 | 43.69945 | 1.27443 | 3766 ft | 258 kts | 306° |
| 2026-04-27 17:56 | 43.70948 | 1.25372 | 4661 ft | 263 kts | 295° |
| 2026-04-27 17:57 | 43.71372 | 1.22911 | 5535 ft | 267 kts | 270° |
| 2026-04-27 17:57 | 43.71010 | 1.20381 | 6457 ft | 272 kts | 247° |
| 2026-04-27 17:57 | 43.69923 | 1.18232 | 7336 ft | 277 kts | 224° |
| 2026-04-27 17:57 | 43.68298 | 1.16847 | 8194 ft | 283 kts | 200° |
| 2026-04-27 17:58 | 43.66337 | 1.16474 | 9059 ft | 289 kts | 176° |
| 2026-04-27 17:58 | 43.64333 | 1.16888 | 9945 ft | 293 kts | 172° |
| 2026-04-27 17:58 | 43.62278 | 1.17233 | 10468 ft | 307 kts | 182° |
| 2026-04-27 17:58 | 43.60072 | 1.17011 | 10729 ft | 330 kts | 186° |
| 2026-04-27 17:59 | 43.57707 | 1.16723 | 10941 ft | 352 kts | 188° |
| 2026-04-27 17:59 | 43.55304 | 1.15850 | 11405 ft | 361 kts | 202° |
| 2026-04-27 17:59 | 43.52969 | 1.14505 | 12091 ft | 366 kts | 204° |
| 2026-04-27 17:59 | 43.50632 | 1.13058 | 12828 ft | 369 kts | 207° |
| 2026-04-27 18:00 | 43.48400 | 1.11287 | 13550 ft | 372 kts | 213° |
| 2026-04-27 18:00 | 43.46229 | 1.09333 | 14231 ft | 375 kts | 215° |
| 2026-04-27 18:00 | 43.44079 | 1.07273 | 14880 ft | 377 kts | 217° |
| 2026-04-27 18:00 | 43.41948 | 1.05143 | 15527 ft | 380 kts | 217° |
| 2026-04-27 18:01 | 43.39818 | 1.02974 | 16150 ft | 383 kts | 218° |
| 2026-04-27 18:01 | 43.37670 | 1.00780 | 16769 ft | 386 kts | 218° |
| 2026-04-27 18:01 | 43.35535 | 0.98607 | 17367 ft | 388 kts | 217° |
| 2026-04-27 18:01 | 43.33350 | 0.96399 | 17961 ft | 391 kts | 217° |
| 2026-04-27 18:02 | 43.31140 | 0.94186 | 18534 ft | 394 kts | 217° |
| 2026-04-27 18:02 | 43.28913 | 0.91972 | 19046 ft | 397 kts | 217° |
| 2026-04-27 18:02 | 43.26664 | 0.89759 | 19560 ft | 399 kts | 217° |
| 2026-04-27 18:02 | 43.24391 | 0.87534 | 20072 ft | 401 kts | 216° |
| 2026-04-27 18:03 | 43.22115 | 0.85308 | 20570 ft | 404 kts | 216° |
| 2026-04-27 18:03 | 43.19819 | 0.83058 | 21023 ft | 407 kts | 217° |
| 2026-04-27 18:03 | 43.17508 | 0.80791 | 21521 ft | 410 kts | 217° |
| 2026-04-27 18:03 | 43.15189 | 0.78514 | 21990 ft | 412 kts | 217° |
| 2026-04-27 18:04 | 43.12845 | 0.76213 | 22479 ft | 414 kts | 216° |
| 2026-04-27 18:04 | 43.10499 | 0.73911 | 22978 ft | 416 kts | 216° |
| 2026-04-27 18:04 | 43.08145 | 0.71604 | 23461 ft | 417 kts | 216° |
| 2026-04-27 18:04 | 43.05777 | 0.69289 | 23860 ft | 420 kts | 217° |
| 2026-04-27 18:05 | 43.03537 | 0.66731 | 24216 ft | 421 kts | 226° |
| 2026-04-27 18:05 | 43.01688 | 0.63682 | 24558 ft | 423 kts | 236° |
| 2026-04-27 18:05 | 43.00277 | 0.60147 | 24884 ft | 426 kts | 247° |
| 2026-04-27 18:05 | 42.99382 | 0.56274 | 25216 ft | 430 kts | 258° |
| 2026-04-27 18:06 | 42.98964 | 0.52221 | 25562 ft | 432 kts | 262° |
| 2026-04-27 18:06 | 42.98605 | 0.48175 | 25898 ft | 434 kts | 262° |
| 2026-04-27 18:06 | 42.98222 | 0.44037 | 26254 ft | 437 kts | 262° |
| 2026-04-27 18:06 | 42.97834 | 0.39912 | 26580 ft | 439 kts | 262° |
| 2026-04-27 18:07 | 42.97442 | 0.35770 | 26902 ft | 441 kts | 262° |
| 2026-04-27 18:07 | 42.97046 | 0.31610 | 27203 ft | 443 kts | 262° |
| 2026-04-27 18:07 | 42.96650 | 0.27439 | 27525 ft | 445 kts | 262° |
| 2026-04-27 18:07 | 42.96255 | 0.23235 | 27832 ft | 447 kts | 262° |
| 2026-04-27 18:08 | 42.95857 | 0.19017 | 28089 ft | 449 kts | 262° |
| 2026-04-27 18:08 | 42.95454 | 0.14786 | 28375 ft | 450 kts | 262° |
| 2026-04-27 18:08 | 42.95050 | 0.10542 | 28704 ft | 450 kts | 262° |
| 2026-04-27 18:08 | 42.94651 | 0.06360 | 29099 ft | 450 kts | 262° |
| 2026-04-27 18:09 | 42.94240 | 0.02081 | 29537 ft | 448 kts | 262° |
| 2026-04-27 18:09 | 42.93836 | -0.02082 | 29981 ft | 447 kts | 261° |
| 2026-04-27 18:09 | 42.93429 | -0.06269 | 30435 ft | 445 kts | 261° |
| 2026-04-27 18:09 | 42.93023 | -0.10443 | 30873 ft | 443 kts | 261° |
| 2026-04-27 18:10 | 42.92615 | -0.14614 | 31227 ft | 442 kts | 261° |
| 2026-04-27 18:10 | 42.92206 | -0.18775 | 31572 ft | 442 kts | 261° |
| 2026-04-27 18:10 | 42.91799 | -0.22924 | 31925 ft | 441 kts | 261° |
| 2026-04-27 18:10 | 42.91392 | -0.27067 | 32102 ft | 442 kts | 261° |
| 2026-04-27 18:11 | 42.90707 | -0.33985 | 32128 ft | 442 kts | 261° |